sensor_id;sensor_type;location;lat;lon;timestamp;P1;P2;P0
73305;PMS5003;61530;51.158;0.880;2022-10-16T00:00:48;4;4;1
73305;PMS5003;61530;51.158;0.880;2022-10-16T00:01:54;7;4;1
73305;PMS5003;61530;51.158;0.880;2022-10-16T00:02:55;4;3;1
73305;PMS5003;61530;51.158;0.880;2022-10-16T00:04:01;9;3;1
73305;PMS5003;61530;51.158;0.880;2022-10-16T00:05:00;5;2;0
73305;PMS5003;61530;51.158;0.880;2022-10-16T00:06:07;4;3;1
73305;PMS5003;61530;51.158;0.880;2022-10-16T00:07:06;4;4;1
73305;PMS5003;61530;51.158;0.880;2022-10-16T00:08:12;11;6;1
73305;PMS5003;61530;51.158;0.880;2022-10-16T00:09:18;7;2;0
73305;PMS5003;61530;51.158;0.880;2022-10-16T00:10:24;4;3;1
73305;PMS5003;61530;51.158;0.880;2022-10-16T00:11:31;7;3;1
73305;PMS5003;61530;51.158;0.880;2022-10-16T00:12:30;9;3;1
73305;PMS5003;61530;51.158;0.880;2022-10-16T00:13:37;5;2;1
73305;PMS5003;61530;51.158;0.880;2022-10-16T00:14:42;10;4;1
73305;PMS5003;61530;51.158;0.880;2022-10-16T00:15:42;8;4;1
73305;PMS5003;61530;51.158;0.880;2022-10-16T00:16:48;3;2;0
73305;PMS5003;61530;51.158;0.880;2022-10-16T00:17:48;4;4;1
73305;PMS5003;61530;51.158;0.880;2022-10-16T00:18:54;10;6;2
73305;PMS5003;61530;51.158;0.880;2022-10-16T00:20:00;4;3;1
73305;PMS5003;61530;51.158;0.880;2022-10-16T00:21:07;6;4;1
73305;PMS5003;61530;51.158;0.880;2022-10-16T00:22:06;4;3;1
73305;PMS5003;61530;51.158;0.880;2022-10-16T00:23:12;4;1;1
73305;PMS5003;61530;51.158;0.880;2022-10-16T00:24:18;5;2;1
73305;PMS5003;61530;51.158;0.880;2022-10-16T00:25:18;4;2;1
73305;PMS5003;61530;51.158;0.880;2022-10-16T00:26:24;6;5;1
73305;PMS5003;61530;51.158;0.880;2022-10-16T00:27:30;9;6;2
73305;PMS5003;61530;51.158;0.880;2022-10-16T00:28:31;3;2;1
73305;PMS5003;61530;51.158;0.880;2022-10-16T00:29:36;4;3;1
73305;PMS5003;61530;51.158;0.880;2022-10-16T00:30:37;3;1;0
73305;PMS5003;61530;51.158;0.880;2022-10-16T00:31:42;6;4;0
73305;PMS5003;61530;51.158;0.880;2022-10-16T00:32:48;7;4;1
73305;PMS5003;61530;51.158;0.880;2022-10-16T00:33:54;11;6;1
73305;PMS5003;61530;51.158;0.880;2022-10-16T00:34:54;3;3;1
73305;PMS5003;61530;51.158;0.880;2022-10-16T00:36:00;7;3;1
73305;PMS5003;61530;51.158;0.880;2022-10-16T00:37:00;5;1;0
73305;PMS5003;61530;51.158;0.880;2022-10-16T00:38:06;4;1;0
73305;PMS5003;61530;51.158;0.880;2022-10-16T00:39:12;9;2;1
73305;PMS5003;61530;51.158;0.880;2022-10-16T00:40:18;5;4;1
73305;PMS5003;61530;51.158;0.880;2022-10-16T00:41:18;5;2;0
73305;PMS5003;61530;51.158;0.880;2022-10-16T00:42:24;6;4;1
73305;PMS5003;61530;51.158;0.880;2022-10-16T00:43:40;4;2;1
73305;PMS5003;61530;51.158;0.880;2022-10-16T00:44:56;3;2;0
73305;PMS5003;61530;51.158;0.880;2022-10-16T00:45:24;3;2;1
73305;PMS5003;61530;51.158;0.880;2022-10-16T00:46:31;3;3;1
73305;PMS5003;61530;51.158;0.880;2022-10-16T00:47:30;7;3;1
73305;PMS5003;61530;51.158;0.880;2022-10-16T00:48:30;4;3;1
73305;PMS5003;61530;51.158;0.880;2022-10-16T00:49:32;4;3;1
73305;PMS5003;61530;51.158;0.880;2022-10-16T00:50:33;5;2;1
73305;PMS5003;61530;51.158;0.880;2022-10-16T00:51:38;2;2;1
73305;PMS5003;61530;51.158;0.880;2022-10-16T00:52:46;4;3;1
73305;PMS5003;61530;51.158;0.880;2022-10-16T00:53:50;2;2;1
73305;PMS5003;61530;51.158;0.880;2022-10-16T00:54:50;6;2;1
73305;PMS5003;61530;51.158;0.880;2022-10-16T00:55:57;8;5;1
73305;PMS5003;61530;51.158;0.880;2022-10-16T00:57:04;8;4;2
73305;PMS5003;61530;51.158;0.880;2022-10-16T00:58:08;6;3;1
73305;PMS5003;61530;51.158;0.880;2022-10-16T00:59:10;3;2;1
73305;PMS5003;61530;51.158;0.880;2022-10-16T01:00:15;7;4;1
73305;PMS5003;61530;51.158;0.880;2022-10-16T01:01:14;8;4;1
73305;PMS5003;61530;51.158;0.880;2022-10-16T01:02:21;10;5;1
73305;PMS5003;61530;51.158;0.880;2022-10-16T01:03:27;6;5;1
73305;PMS5003;61530;51.158;0.880;2022-10-16T01:04:34;9;4;1
73305;PMS5003;61530;51.158;0.880;2022-10-16T01:05:34;7;6;2
73305;PMS5003;61530;51.158;0.880;2022-10-16T01:06:39;5;5;2
73305;PMS5003;61530;51.158;0.880;2022-10-16T01:07:41;6;4;2
73305;PMS5003;61530;51.158;0.880;2022-10-16T01:08:47;4;4;1
73305;PMS5003;61530;51.158;0.880;2022-10-16T01:09:54;9;4;2
73305;PMS5003;61530;51.158;0.880;2022-10-16T01:10:57;10;5;2
73305;PMS5003;61530;51.158;0.880;2022-10-16T01:11:58;8;6;1
73305;PMS5003;61530;51.158;0.880;2022-10-16T01:13:03;8;5;2
73305;PMS5003;61530;51.158;0.880;2022-10-16T01:14:04;6;3;1
73305;PMS5003;61530;51.158;0.880;2022-10-16T01:15:04;5;4;2
73305;PMS5003;61530;51.158;0.880;2022-10-16T01:16:03;10;5;1
73305;PMS5003;61530;51.158;0.880;2022-10-16T01:17:04;5;4;1
73305;PMS5003;61530;51.158;0.880;2022-10-16T01:18:09;10;6;1
73305;PMS5003;61530;51.158;0.880;2022-10-16T01:19:09;8;4;1
73305;PMS5003;61530;51.158;0.880;2022-10-16T01:20:16;6;4;1
73305;PMS5003;61530;51.158;0.880;2022-10-16T01:21:15;7;3;1
73305;PMS5003;61530;51.158;0.880;2022-10-16T01:22:14;8;8;3
73305;PMS5003;61530;51.158;0.880;2022-10-16T01:23:25;5;4;1
73305;PMS5003;61530;51.158;0.880;2022-10-16T01:24:25;7;4;1
73305;PMS5003;61530;51.158;0.880;2022-10-16T01:25:22;5;2;1
73305;PMS5003;61530;51.158;0.880;2022-10-16T01:26:30;4;3;0
73305;PMS5003;61530;51.158;0.880;2022-10-16T01:27:26;5;2;1
73305;PMS5003;61530;51.158;0.880;2022-10-16T01:28:34;8;4;1
73305;PMS5003;61530;51.158;0.880;2022-10-16T01:29:39;3;1;0
73305;PMS5003;61530;51.158;0.880;2022-10-16T01:30:38;4;2;1
73305;PMS5003;61530;51.158;0.880;2022-10-16T01:31:45;5;4;1
73305;PMS5003;61530;51.158;0.880;2022-10-16T01:32:45;6;4;2
73305;PMS5003;61530;51.158;0.880;2022-10-16T01:33:51;6;3;1
73305;PMS5003;61530;51.158;0.880;2022-10-16T01:34:52;2;2;1
73305;PMS5003;61530;51.158;0.880;2022-10-16T01:35:59;5;4;2
73305;PMS5003;61530;51.158;0.880;2022-10-16T01:37:00;4;4;2
73305;PMS5003;61530;51.158;0.880;2022-10-16T01:38:05;6;6;5
73305;PMS5003;61530;51.158;0.880;2022-10-16T01:39:04;7;6;3
73305;PMS5003;61530;51.158;0.880;2022-10-16T01:40:06;6;6;4
73305;PMS5003;61530;51.158;0.880;2022-10-16T01:41:06;8;5;5
73305;PMS5003;61530;51.158;0.880;2022-10-16T01:42:11;11;7;5
73305;PMS5003;61530;51.158;0.880;2022-10-16T01:43:12;11;8;6
73305;PMS5003;61530;51.158;0.880;2022-10-16T01:44:17;12;9;7
73305;PMS5003;61530;51.158;0.880;2022-10-16T01:45:22;14;10;6
73305;PMS5003;61530;51.158;0.880;2022-10-16T01:46:28;14;9;7
73305;PMS5003;61530;51.158;0.880;2022-10-16T01:47:28;14;12;9
73305;PMS5003;61530;51.158;0.880;2022-10-16T01:48:34;14;13;10
73305;PMS5003;61530;51.158;0.880;2022-10-16T01:49:40;16;12;10
73305;PMS5003;61530;51.158;0.880;2022-10-16T01:50:40;14;11;10
73305;PMS5003;61530;51.158;0.880;2022-10-16T01:51:47;5;3;2
73305;PMS5003;61530;51.158;0.880;2022-10-16T01:52:52;12;8;7
73305;PMS5003;61530;51.158;0.880;2022-10-16T01:53:53;10;10;9
73305;PMS5003;61530;51.158;0.880;2022-10-16T01:54:58;6;4;1
73305;PMS5003;61530;51.158;0.880;2022-10-16T01:56:04;9;6;5
73305;PMS5003;61530;51.158;0.880;2022-10-16T01:57:04;14;12;9
73305;PMS5003;61530;51.158;0.880;2022-10-16T01:58:05;14;14;13
73305;PMS5003;61530;51.158;0.880;2022-10-16T01:59:11;10;6;0
73305;PMS5003;61530;51.158;0.880;2022-10-16T02:00:17;12;9;6
73305;PMS5003;61530;51.158;0.880;2022-10-16T02:01:23;14;13;12
73305;PMS5003;61530;51.158;0.880;2022-10-16T02:02:28;19;16;15
73305;PMS5003;61530;51.158;0.880;2022-10-16T02:03:28;19;17;14
73305;PMS5003;61530;51.158;0.880;2022-10-16T02:04:36;21;19;17
73305;PMS5003;61530;51.158;0.880;2022-10-16T02:05:41;21;19;17
73305;PMS5003;61530;51.158;0.880;2022-10-16T02:06:40;24;19;17
73305;PMS5003;61530;51.158;0.880;2022-10-16T02:07:47;21;21;19
73305;PMS5003;61530;51.158;0.880;2022-10-16T02:08:51;21;20;19
73305;PMS5003;61530;51.158;0.880;2022-10-16T02:09:52;24;20;19
73305;PMS5003;61530;51.158;0.880;2022-10-16T02:10:59;22;20;19
73305;PMS5003;61530;51.158;0.880;2022-10-16T02:12:06;22;22;20
73305;PMS5003;61530;51.158;0.880;2022-10-16T02:13:06;5;4;2
73305;PMS5003;61530;51.158;0.880;2022-10-16T02:14:10;19;13;11
73305;PMS5003;61530;51.158;0.880;2022-10-16T02:15:10;22;19;17
73305;PMS5003;61530;51.158;0.880;2022-10-16T02:16:16;20;19;18
73305;PMS5003;61530;51.158;0.880;2022-10-16T02:17:16;24;21;20
73305;PMS5003;61530;51.158;0.880;2022-10-16T02:18:22;6;6;1
73305;PMS5003;61530;51.158;0.880;2022-10-16T02:19:28;15;12;12
73305;PMS5003;61530;51.158;0.880;2022-10-16T02:20:36;22;21;20
73305;PMS5003;61530;51.158;0.880;2022-10-16T02:21:36;29;26;24
73305;PMS5003;61530;51.158;0.880;2022-10-16T02:22:41;16;16;9
73305;PMS5003;61530;51.158;0.880;2022-10-16T02:23:48;19;18;16
73305;PMS5003;61530;51.158;0.880;2022-10-16T02:24:53;28;28;26
73305;PMS5003;61530;51.158;0.880;2022-10-16T02:25:52;20;20;14
73305;PMS5003;61530;51.158;0.880;2022-10-16T02:26:53;20;19;17
73305;PMS5003;61530;51.158;0.880;2022-10-16T02:27:59;38;36;32
73305;PMS5003;61530;51.158;0.880;2022-10-16T02:29:05;50;48;46
73305;PMS5003;61530;51.158;0.880;2022-10-16T02:30:05;57;55;53
73305;PMS5003;61530;51.158;0.880;2022-10-16T02:31:11;67;65;61
73305;PMS5003;61530;51.158;0.880;2022-10-16T02:32:17;65;64;62
73305;PMS5003;61530;51.158;0.880;2022-10-16T02:33:22;67;66;65
73305;PMS5003;61530;51.158;0.880;2022-10-16T02:34:22;14;12;7
73305;PMS5003;61530;51.158;0.880;2022-10-16T02:35:28;47;45;43
73305;PMS5003;61530;51.158;0.880;2022-10-16T02:36:28;17;17;16
73305;PMS5003;61530;51.158;0.880;2022-10-16T02:37:34;48;48;45
73305;PMS5003;61530;51.158;0.880;2022-10-16T02:38:40;54;54;53
73305;PMS5003;61530;51.158;0.880;2022-10-16T02:39:40;61;59;58
73305;PMS5003;61530;51.158;0.880;2022-10-16T02:40:46;65;64;63
73305;PMS5003;61530;51.158;0.880;2022-10-16T02:41:52;79;73;70
73305;PMS5003;61530;51.158;0.880;2022-10-16T02:42:53;79;77;75
73305;PMS5003;61530;51.158;0.880;2022-10-16T02:43:58;32;32;30
73305;PMS5003;61530;51.158;0.880;2022-10-16T02:45:05;56;56;55
73305;PMS5003;61530;51.158;0.880;2022-10-16T02:46:04;24;23;17
73305;PMS5003;61530;51.158;0.880;2022-10-16T02:47:04;53;53;52
73305;PMS5003;61530;51.158;0.880;2022-10-16T02:48:10;46;46;40
73305;PMS5003;61530;51.158;0.880;2022-10-16T02:49:10;52;49;48
73305;PMS5003;61530;51.158;0.880;2022-10-16T02:50:16;16;16;13
73305;PMS5003;61530;51.158;0.880;2022-10-16T02:51:22;46;43;41
73305;PMS5003;61530;51.158;0.880;2022-10-16T02:52:28;8;8;3
73305;PMS5003;61530;51.158;0.880;2022-10-16T02:53:34;23;21;18
73305;PMS5003;61530;51.158;0.880;2022-10-16T02:54:40;7;7;2
73305;PMS5003;61530;51.158;0.880;2022-10-16T02:55:40;60;60;59
73305;PMS5003;61530;51.158;0.880;2022-10-16T02:56:42;41;40;33
73305;PMS5003;61530;51.158;0.880;2022-10-16T02:57:42;60;56;54
73305;PMS5003;61530;51.158;0.880;2022-10-16T02:58:48;72;68;62
73305;PMS5003;61530;51.158;0.880;2022-10-16T02:59:54;68;67;65
73305;PMS5003;61530;51.158;0.880;2022-10-16T03:01:00;35;35;33
73305;PMS5003;61530;51.158;0.880;2022-10-16T03:02:00;20;18;11
73305;PMS5003;61530;51.158;0.880;2022-10-16T03:03:06;64;64;63
73305;PMS5003;61530;51.158;0.880;2022-10-16T03:04:12;39;38;36
73305;PMS5003;61530;51.158;0.880;2022-10-16T03:05:18;14;13;9
73305;PMS5003;61530;51.158;0.880;2022-10-16T03:06:24;6;5;2
73305;PMS5003;61530;51.158;0.880;2022-10-16T03:07:30;3;2;1
73305;PMS5003;61530;51.158;0.880;2022-10-16T03:08:30;2;2;1
73305;PMS5003;61530;51.158;0.880;2022-10-16T03:09:36;4;2;1
73305;PMS5003;61530;51.158;0.880;2022-10-16T03:10:42;2;2;1
73305;PMS5003;61530;51.158;0.880;2022-10-16T03:11:42;4;2;0
73305;PMS5003;61530;51.158;0.880;2022-10-16T03:12:48;7;4;2
73305;PMS5003;61530;51.158;0.880;2022-10-16T03:13:54;4;2;1
73305;PMS5003;61530;51.158;0.880;2022-10-16T03:14:54;5;3;2
73305;PMS5003;61530;51.158;0.880;2022-10-16T03:16:00;4;4;2
73305;PMS5003;61530;51.158;0.880;2022-10-16T03:17:00;70;70;69
73305;PMS5003;61530;51.158;0.880;2022-10-16T03:18:06;3;2;1
73305;PMS5003;61530;51.158;0.880;2022-10-16T03:19:12;7;2;1
73305;PMS5003;61530;51.158;0.880;2022-10-16T03:20:18;2;2;1
73305;PMS5003;61530;51.158;0.880;2022-10-16T03:21:18;5;3;2
73305;PMS5003;61530;51.158;0.880;2022-10-16T03:22:24;1;1;1
73305;PMS5003;61530;51.158;0.880;2022-10-16T03:23:24;4;3;1
73305;PMS5003;61530;51.158;0.880;2022-10-16T03:24:30;8;3;1
73305;PMS5003;61530;51.158;0.880;2022-10-16T03:25:36;85;81;75
73305;PMS5003;61530;51.158;0.880;2022-10-16T03:26:42;4;4;2
73305;PMS5003;61530;51.158;0.880;2022-10-16T03:27:42;4;3;1
73305;PMS5003;61530;51.158;0.880;2022-10-16T03:28:48;7;6;2
73305;PMS5003;61530;51.158;0.880;2022-10-16T03:29:54;2;2;1
73305;PMS5003;61530;51.158;0.880;2022-10-16T03:30:54;10;4;0
73305;PMS5003;61530;51.158;0.880;2022-10-16T03:32:00;2;2;1
73305;PMS5003;61530;51.158;0.880;2022-10-16T03:33:06;5;3;1
73305;PMS5003;61530;51.158;0.880;2022-10-16T03:34:07;10;5;1
73305;PMS5003;61530;51.158;0.880;2022-10-16T03:35:12;4;3;2
73305;PMS5003;61530;51.158;0.880;2022-10-16T03:36:18;4;3;0
73305;PMS5003;61530;51.158;0.880;2022-10-16T03:37:18;6;3;1
73305;PMS5003;61530;51.158;0.880;2022-10-16T03:38:24;3;2;1
73305;PMS5003;61530;51.158;0.880;2022-10-16T03:39:30;72;70;63
73305;PMS5003;61530;51.158;0.880;2022-10-16T03:40:30;61;60;56
73305;PMS5003;61530;51.158;0.880;2022-10-16T03:41:36;5;4;1
73305;PMS5003;61530;51.158;0.880;2022-10-16T03:42:43;11;7;3
73305;PMS5003;61530;51.158;0.880;2022-10-16T03:43:42;54;51;44
73305;PMS5003;61530;51.158;0.880;2022-10-16T03:44:48;36;33;31
73305;PMS5003;61530;51.158;0.880;2022-10-16T03:45:54;57;55;52
73305;PMS5003;61530;51.158;0.880;2022-10-16T03:46:54;5;4;1
73305;PMS5003;61530;51.158;0.880;2022-10-16T03:48:00;10;5;1
73305;PMS5003;61530;51.158;0.880;2022-10-16T03:49:02;3;2;1
73305;PMS5003;61530;51.158;0.880;2022-10-16T03:50:09;4;3;1
73305;PMS5003;61530;51.158;0.880;2022-10-16T03:51:14;6;3;1
73305;PMS5003;61530;51.158;0.880;2022-10-16T03:52:20;38;35;28
73305;PMS5003;61530;51.158;0.880;2022-10-16T03:53:20;24;23;21
73305;PMS5003;61530;51.158;0.880;2022-10-16T03:54:26;5;2;1
73305;PMS5003;61530;51.158;0.880;2022-10-16T03:55:32;4;4;1
73305;PMS5003;61530;51.158;0.880;2022-10-16T03:56:32;7;3;1
73305;PMS5003;61530;51.158;0.880;2022-10-16T03:57:32;3;2;1
73305;PMS5003;61530;51.158;0.880;2022-10-16T03:58:38;5;2;0
73305;PMS5003;61530;51.158;0.880;2022-10-16T03:59:44;6;2;0
73305;PMS5003;61530;51.158;0.880;2022-10-16T04:00:50;3;3;1
73305;PMS5003;61530;51.158;0.880;2022-10-16T04:01:56;4;4;1
73305;PMS5003;61530;51.158;0.880;2022-10-16T04:02:56;4;4;1
73305;PMS5003;61530;51.158;0.880;2022-10-16T04:04:02;3;1;0
73305;PMS5003;61530;51.158;0.880;2022-10-16T04:05:08;5;1;1
73305;PMS5003;61530;51.158;0.880;2022-10-16T04:06:08;6;3;1
73305;PMS5003;61530;51.158;0.880;2022-10-16T04:07:14;3;1;1
73305;PMS5003;61530;51.158;0.880;2022-10-16T04:08:20;3;2;0
73305;PMS5003;61530;51.158;0.880;2022-10-16T04:09:20;9;1;1
73305;PMS5003;61530;51.158;0.880;2022-10-16T04:10:20;2;2;1
73305;PMS5003;61530;51.158;0.880;2022-10-16T04:11:26;3;1;1
73305;PMS5003;61530;51.158;0.880;2022-10-16T04:12:32;10;3;1
73305;PMS5003;61530;51.158;0.880;2022-10-16T04:13:38;3;2;1
73305;PMS5003;61530;51.158;0.880;2022-10-16T04:14:44;3;2;0
73305;PMS5003;61530;51.158;0.880;2022-10-16T04:15:44;4;3;1
73305;PMS5003;61530;51.158;0.880;2022-10-16T04:16:44;5;2;0
73305;PMS5003;61530;51.158;0.880;2022-10-16T04:17:50;4;4;1
73305;PMS5003;61530;51.158;0.880;2022-10-16T04:18:56;5;2;1
73305;PMS5003;61530;51.158;0.880;2022-10-16T04:20:03;2;2;1
73305;PMS5003;61530;51.158;0.880;2022-10-16T04:21:03;58;57;54
73305;PMS5003;61530;51.158;0.880;2022-10-16T04:22:08;36;36;34
73305;PMS5003;61530;51.158;0.880;2022-10-16T04:23:14;5;2;1
73305;PMS5003;61530;51.158;0.880;2022-10-16T04:24:20;2;2;0
73305;PMS5003;61530;51.158;0.880;2022-10-16T04:25:20;5;2;0
73305;PMS5003;61530;51.158;0.880;2022-10-16T04:26:26;5;3;1
73305;PMS5003;61530;51.158;0.880;2022-10-16T04:27:32;4;2;1
73305;PMS5003;61530;51.158;0.880;2022-10-16T04:28:32;4;2;1
73305;PMS5003;61530;51.158;0.880;2022-10-16T04:29:38;5;3;1
73305;PMS5003;61530;51.158;0.880;2022-10-16T04:30:44;6;2;0
73305;PMS5003;61530;51.158;0.880;2022-10-16T04:31:44;9;2;1
73305;PMS5003;61530;51.158;0.880;2022-10-16T04:32:50;2;2;0
73305;PMS5003;61530;51.158;0.880;2022-10-16T04:33:56;4;3;1
73305;PMS5003;61530;51.158;0.880;2022-10-16T04:34:57;1;1;1
73305;PMS5003;61530;51.158;0.880;2022-10-16T04:35:57;7;4;1
73305;PMS5003;61530;51.158;0.880;2022-10-16T04:37:02;1;1;1
73305;PMS5003;61530;51.158;0.880;2022-10-16T04:38:02;4;2;1
73305;PMS5003;61530;51.158;0.880;2022-10-16T04:39:08;3;2;1
73305;PMS5003;61530;51.158;0.880;2022-10-16T04:40:14;5;2;0
73305;PMS5003;61530;51.158;0.880;2022-10-16T04:41:20;4;1;0
73305;PMS5003;61530;51.158;0.880;2022-10-16T04:42:26;4;3;1
73305;PMS5003;61530;51.158;0.880;2022-10-16T04:43:32;2;2;0
73305;PMS5003;61530;51.158;0.880;2022-10-16T04:44:32;3;3;0
73305;PMS5003;61530;51.158;0.880;2022-10-16T04:45:38;2;2;1
73305;PMS5003;61530;51.158;0.880;2022-10-16T04:46:44;3;3;1
73305;PMS5003;61530;51.158;0.880;2022-10-16T04:47:44;2;2;1
73305;PMS5003;61530;51.158;0.880;2022-10-16T04:48:50;3;1;0
73305;PMS5003;61530;51.158;0.880;2022-10-16T04:49:56;3;2;1
73305;PMS5003;61530;51.158;0.880;2022-10-16T04:50:56;4;2;0
73305;PMS5003;61530;51.158;0.880;2022-10-16T04:52:02;2;2;1
73305;PMS5003;61530;51.158;0.880;2022-10-16T04:53:02;3;3;0
73305;PMS5003;61530;51.158;0.880;2022-10-16T04:54:08;2;0;0
73305;PMS5003;61530;51.158;0.880;2022-10-16T04:55:14;1;1;0
73305;PMS5003;61530;51.158;0.880;2022-10-16T04:56:20;2;1;0
73305;PMS5003;61530;51.158;0.880;2022-10-16T04:57:20;7;2;0
73305;PMS5003;61530;51.158;0.880;2022-10-16T04:58:26;2;1;0
73305;PMS5003;61530;51.158;0.880;2022-10-16T04:59:32;6;4;0
73305;PMS5003;61530;51.158;0.880;2022-10-16T05:00:32;3;1;0
73305;PMS5003;61530;51.158;0.880;2022-10-16T05:01:38;5;1;1
73305;PMS5003;61530;51.158;0.880;2022-10-16T05:02:44;3;1;0
73305;PMS5003;61530;51.158;0.880;2022-10-16T05:03:44;6;3;1
73305;PMS5003;61530;51.158;0.880;2022-10-16T05:04:50;3;1;0
73305;PMS5003;61530;51.158;0.880;2022-10-16T05:05:56;4;3;1
73305;PMS5003;61530;51.158;0.880;2022-10-16T05:06:56;2;2;1
73305;PMS5003;61530;51.158;0.880;2022-10-16T05:07:56;2;0;0
73305;PMS5003;61530;51.158;0.880;2022-10-16T05:09:02;8;4;1
73305;PMS5003;61530;51.158;0.880;2022-10-16T05:10:09;2;1;0
73305;PMS5003;61530;51.158;0.880;2022-10-16T05:11:14;3;2;1
73305;PMS5003;61530;51.158;0.880;2022-10-16T05:12:20;7;7;1
73305;PMS5003;61530;51.158;0.880;2022-10-16T05:13:20;6;4;0
73305;PMS5003;61530;51.158;0.880;2022-10-16T05:14:20;2;2;1
73305;PMS5003;61530;51.158;0.880;2022-10-16T05:15:26;2;2;1
73305;PMS5003;61530;51.158;0.880;2022-10-16T05:16:32;2;2;1
73305;PMS5003;61530;51.158;0.880;2022-10-16T05:17:38;7;3;0
73305;PMS5003;61530;51.158;0.880;2022-10-16T05:18:44;2;1;0
73305;PMS5003;61530;51.158;0.880;2022-10-16T05:19:44;6;1;0
73305;PMS5003;61530;51.158;0.880;2022-10-16T05:20:50;1;1;0
73305;PMS5003;61530;51.158;0.880;2022-10-16T05:21:56;5;2;0
73305;PMS5003;61530;51.158;0.880;2022-10-16T05:22:57;3;3;1
73305;PMS5003;61530;51.158;0.880;2022-10-16T05:24:02;1;1;1
73305;PMS5003;61530;51.158;0.880;2022-10-16T05:25:03;5;2;1
73305;PMS5003;61530;51.158;0.880;2022-10-16T05:26:08;3;3;2
73305;PMS5003;61530;51.158;0.880;2022-10-16T05:27:09;6;1;1
73305;PMS5003;61530;51.158;0.880;2022-10-16T05:28:14;7;7;0
73305;PMS5003;61530;51.158;0.880;2022-10-16T05:29:20;4;1;1
73305;PMS5003;61530;51.158;0.880;2022-10-16T05:30:26;4;2;0
73305;PMS5003;61530;51.158;0.880;2022-10-16T05:31:32;2;2;1
73305;PMS5003;61530;51.158;0.880;2022-10-16T05:32:32;6;5;2
73305;PMS5003;61530;51.158;0.880;2022-10-16T05:33:32;5;2;1
73305;PMS5003;61530;51.158;0.880;2022-10-16T05:34:38;6;4;1
73305;PMS5003;61530;51.158;0.880;2022-10-16T05:35:45;3;3;2
73305;PMS5003;61530;51.158;0.880;2022-10-16T05:36:50;6;4;2
73305;PMS5003;61530;51.158;0.880;2022-10-16T05:37:56;4;4;2
73305;PMS5003;61530;51.158;0.880;2022-10-16T05:38:56;3;3;2
73305;PMS5003;61530;51.158;0.880;2022-10-16T05:39:56;3;3;2
73305;PMS5003;61530;51.158;0.880;2022-10-16T05:41:02;6;4;3
73305;PMS5003;61530;51.158;0.880;2022-10-16T05:42:02;7;4;3
73305;PMS5003;61530;51.158;0.880;2022-10-16T05:43:08;10;6;4
73305;PMS5003;61530;51.158;0.880;2022-10-16T05:44:08;3;3;1
73305;PMS5003;61530;51.158;0.880;2022-10-16T05:45:14;5;3;2
73305;PMS5003;61530;51.158;0.880;2022-10-16T05:46:20;6;4;3
73305;PMS5003;61530;51.158;0.880;2022-10-16T05:47:26;6;5;3
73305;PMS5003;61530;51.158;0.880;2022-10-16T05:48:32;9;4;2
73305;PMS5003;61530;51.158;0.880;2022-10-16T05:49:38;4;4;3
73305;PMS5003;61530;51.158;0.880;2022-10-16T05:50:44;4;3;1
73305;PMS5003;61530;51.158;0.880;2022-10-16T05:51:44;5;4;2
73305;PMS5003;61530;51.158;0.880;2022-10-16T05:52:44;5;5;2
73305;PMS5003;61530;51.158;0.880;2022-10-16T05:53:50;4;4;2
73305;PMS5003;61530;51.158;0.880;2022-10-16T05:54:56;8;5;3
73305;PMS5003;61530;51.158;0.880;2022-10-16T05:56:02;5;4;2
73305;PMS5003;61530;51.158;0.880;2022-10-16T05:57:02;8;5;3
73305;PMS5003;61530;51.158;0.880;2022-10-16T05:58:09;6;3;1
73305;PMS5003;61530;51.158;0.880;2022-10-16T05:59:14;5;3;2
73305;PMS5003;61530;51.158;0.880;2022-10-16T06:00:20;5;3;2
73305;PMS5003;61530;51.158;0.880;2022-10-16T06:01:20;7;4;2
73305;PMS5003;61530;51.158;0.880;2022-10-16T06:02:26;4;4;2
73305;PMS5003;61530;51.158;0.880;2022-10-16T06:03:32;6;6;3
73305;PMS5003;61530;51.158;0.880;2022-10-16T06:04:32;3;3;2
73305;PMS5003;61530;51.158;0.880;2022-10-16T06:05:38;7;4;3
73305;PMS5003;61530;51.158;0.880;2022-10-16T06:06:44;8;7;2
73305;PMS5003;61530;51.158;0.880;2022-10-16T06:07:44;7;4;3
73305;PMS5003;61530;51.158;0.880;2022-10-16T06:08:50;3;3;2
73305;PMS5003;61530;51.158;0.880;2022-10-16T06:09:56;9;5;3
73305;PMS5003;61530;51.158;0.880;2022-10-16T06:11:04;5;4;2
73305;PMS5003;61530;51.158;0.880;2022-10-16T06:12:02;3;3;2
73305;PMS5003;61530;51.158;0.880;2022-10-16T06:13:08;8;6;3
73305;PMS5003;61530;51.158;0.880;2022-10-16T06:14:08;7;4;2
73305;PMS5003;61530;51.158;0.880;2022-10-16T06:15:14;6;3;3
73305;PMS5003;61530;51.158;0.880;2022-10-16T06:16:20;4;3;0
73305;PMS5003;61530;51.158;0.880;2022-10-16T06:17:20;7;4;1
73305;PMS5003;61530;51.158;0.880;2022-10-16T06:18:20;6;4;1
73305;PMS5003;61530;51.158;0.880;2022-10-16T06:19:26;6;5;2
73305;PMS5003;61530;51.158;0.880;2022-10-16T06:20:32;5;4;2
73305;PMS5003;61530;51.158;0.880;2022-10-16T06:21:38;2;2;1
73305;PMS5003;61530;51.158;0.880;2022-10-16T06:22:38;8;7;3
73305;PMS5003;61530;51.158;0.880;2022-10-16T06:23:44;5;5;3
73305;PMS5003;61530;51.158;0.880;2022-10-16T06:24:45;9;4;2
73305;PMS5003;61530;51.158;0.880;2022-10-16T06:25:50;6;3;2
73305;PMS5003;61530;51.158;0.880;2022-10-16T06:26:50;3;3;1
73305;PMS5003;61530;51.158;0.880;2022-10-16T06:27:56;5;2;2
73305;PMS5003;61530;51.158;0.880;2022-10-16T06:29:02;4;3;1
73305;PMS5003;61530;51.158;0.880;2022-10-16T06:30:09;6;3;2
73305;PMS5003;61530;51.158;0.880;2022-10-16T06:31:14;6;4;3
73305;PMS5003;61530;51.158;0.880;2022-10-16T06:32:20;7;4;2
73305;PMS5003;61530;51.158;0.880;2022-10-16T06:33:20;6;4;2
73305;PMS5003;61530;51.158;0.880;2022-10-16T06:34:26;2;2;1
73305;PMS5003;61530;51.158;0.880;2022-10-16T06:35:32;8;3;2
73305;PMS5003;61530;51.158;0.880;2022-10-16T06:36:32;4;3;1
73305;PMS5003;61530;51.158;0.880;2022-10-16T06:37:32;2;2;1
73305;PMS5003;61530;51.158;0.880;2022-10-16T06:38:38;7;6;2
73305;PMS5003;61530;51.158;0.880;2022-10-16T06:39:44;8;4;1
73305;PMS5003;61530;51.158;0.880;2022-10-16T06:40:50;2;2;1
73305;PMS5003;61530;51.158;0.880;2022-10-16T06:41:50;2;1;0
73305;PMS5003;61530;51.158;0.880;2022-10-16T06:42:56;2;1;0
73305;PMS5003;61530;51.158;0.880;2022-10-16T06:44:05;1;1;0
73305;PMS5003;61530;51.158;0.880;2022-10-16T06:45:08;4;2;0
73305;PMS5003;61530;51.158;0.880;2022-10-16T06:46:09;3;2;0
73305;PMS5003;61530;51.158;0.880;2022-10-16T06:47:14;4;2;0
73305;PMS5003;61530;51.158;0.880;2022-10-16T06:48:14;8;3;1
73305;PMS5003;61530;51.158;0.880;2022-10-16T06:49:20;4;4;2
73305;PMS5003;61530;51.158;0.880;2022-10-16T06:50:26;4;3;1
73305;PMS5003;61530;51.158;0.880;2022-10-16T06:51:32;5;3;1
73305;PMS5003;61530;51.158;0.880;2022-10-16T06:52:33;4;2;1
73305;PMS5003;61530;51.158;0.880;2022-10-16T06:53:39;4;2;1
73305;PMS5003;61530;51.158;0.880;2022-10-16T06:54:44;4;3;2
73305;PMS5003;61530;51.158;0.880;2022-10-16T06:55:44;3;3;1
73305;PMS5003;61530;51.158;0.880;2022-10-16T06:56:50;5;2;0
73305;PMS5003;61530;51.158;0.880;2022-10-16T06:57:56;3;2;0
73305;PMS5003;61530;51.158;0.880;2022-10-16T06:58:56;3;3;1
73305;PMS5003;61530;51.158;0.880;2022-10-16T07:00:02;4;2;0
73305;PMS5003;61530;51.158;0.880;2022-10-16T07:01:08;2;1;0
73305;PMS5003;61530;51.158;0.880;2022-10-16T07:02:08;2;2;0
73305;PMS5003;61530;51.158;0.880;2022-10-16T07:03:14;5;2;0
73305;PMS5003;61530;51.158;0.880;2022-10-16T07:04:20;3;2;1
73305;PMS5003;61530;51.158;0.880;2022-10-16T07:05:20;5;1;0
73305;PMS5003;61530;51.158;0.880;2022-10-16T07:06:26;3;2;1